sensor_id;sensor_type;location;lat;lon;timestamp;P1;durP1;ratioP1;P2;durP2;ratioP2
45368;SDS011;51342;55.250;37.668;2023-01-01T00:04:09;21.45;;;10.00;;
45368;SDS011;51342;55.250;37.668;2023-01-01T00:06:42;20.57;;;8.57;;
45368;SDS011;51342;55.250;37.668;2023-01-01T00:09:15;19.43;;;9.53;;
45368;SDS011;51342;55.250;37.668;2023-01-01T00:12:05;18.87;;;9.33;;
45368;SDS011;51342;55.250;37.668;2023-01-01T00:14:36;17.30;;;8.87;;
45368;SDS011;51342;55.250;37.668;2023-01-01T00:17:09;19.13;;;9.10;;
45368;SDS011;51342;55.250;37.668;2023-01-01T00:19:41;19.00;;;8.83;;
45368;SDS011;51342;55.250;37.668;2023-01-01T00:22:12;18.67;;;8.30;;
45368;SDS011;51342;55.250;37.668;2023-01-01T00:24:44;16.13;;;9.20;;
45368;SDS011;51342;55.250;37.668;2023-01-01T00:27:15;17.77;;;8.47;;
45368;SDS011;51342;55.250;37.668;2023-01-01T00:29:47;13.33;;;7.53;;
45368;SDS011;51342;55.250;37.668;2023-01-01T00:32:18;13.97;;;7.50;;
45368;SDS011;51342;55.250;37.668;2023-01-01T00:34:50;13.93;;;7.27;;
45368;SDS011;51342;55.250;37.668;2023-01-01T00:37:22;14.10;;;7.40;;
45368;SDS011;51342;55.250;37.668;2023-01-01T00:39:53;13.07;;;7.27;;
45368;SDS011;51342;55.250;37.668;2023-01-01T00:42:24;14.20;;;7.17;;
45368;SDS011;51342;55.250;37.668;2023-01-01T00:44:56;12.90;;;6.97;;
45368;SDS011;51342;55.250;37.668;2023-01-01T00:47:27;12.63;;;6.93;;
45368;SDS011;51342;55.250;37.668;2023-01-01T00:49:59;13.13;;;7.03;;
45368;SDS011;51342;55.250;37.668;2023-01-01T00:52:30;12.57;;;6.77;;
45368;SDS011;51342;55.250;37.668;2023-01-01T00:55:02;11.93;;;7.00;;
45368;SDS011;51342;55.250;37.668;2023-01-01T00:57:33;14.50;;;7.13;;
45368;SDS011;51342;55.250;37.668;2023-01-01T01:00:06;12.33;;;6.87;;
45368;SDS011;51342;55.250;37.668;2023-01-01T01:02:38;11.10;;;6.70;;
45368;SDS011;51342;55.250;37.668;2023-01-01T01:05:09;11.90;;;6.93;;
45368;SDS011;51342;55.250;37.668;2023-01-01T01:07:41;13.63;;;6.57;;
45368;SDS011;51342;55.250;37.668;2023-01-01T01:10:12;13.03;;;6.73;;
45368;SDS011;51342;55.250;37.668;2023-01-01T01:12:44;11.67;;;6.63;;
45368;SDS011;51342;55.250;37.668;2023-01-01T01:15:15;12.50;;;5.73;;
45368;SDS011;51342;55.250;37.668;2023-01-01T01:17:47;9.80;;;5.73;;
45368;SDS011;51342;55.250;37.668;2023-01-01T01:20:18;11.67;;;5.83;;
45368;SDS011;51342;55.250;37.668;2023-01-01T01:22:50;11.23;;;6.33;;
45368;SDS011;51342;55.250;37.668;2023-01-01T01:25:21;10.80;;;6.03;;
45368;SDS011;51342;55.250;37.668;2023-01-01T01:27:53;11.27;;;6.27;;
45368;SDS011;51342;55.250;37.668;2023-01-01T01:30:26;11.40;;;6.33;;
45368;SDS011;51342;55.250;37.668;2023-01-01T01:32:57;9.53;;;5.47;;
45368;SDS011;51342;55.250;37.668;2023-01-01T01:35:29;9.70;;;5.43;;
45368;SDS011;51342;55.250;37.668;2023-01-01T01:38:00;11.53;;;6.10;;
45368;SDS011;51342;55.250;37.668;2023-01-01T01:40:32;10.60;;;5.50;;
45368;SDS011;51342;55.250;37.668;2023-01-01T01:43:04;7.93;;;5.70;;
45368;SDS011;51342;55.250;37.668;2023-01-01T01:45:40;8.93;;;5.60;;
45368;SDS011;51342;55.250;37.668;2023-01-01T01:48:11;9.93;;;5.53;;
45368;SDS011;51342;55.250;37.668;2023-01-01T01:50:43;8.50;;;5.40;;
45368;SDS011;51342;55.250;37.668;2023-01-01T01:53:19;9.30;;;5.80;;
45368;SDS011;51342;55.250;37.668;2023-01-01T01:55:57;9.50;;;5.43;;
45368;SDS011;51342;55.250;37.668;2023-01-01T01:58:30;8.83;;;5.10;;
45368;SDS011;51342;55.250;37.668;2023-01-01T02:01:03;8.03;;;4.97;;
45368;SDS011;51342;55.250;37.668;2023-01-01T02:03:37;9.47;;;5.57;;
45368;SDS011;51342;55.250;37.668;2023-01-01T02:08:45;11.83;;;4.90;;
45368;SDS011;51342;55.250;37.668;2023-01-01T02:11:19;8.70;;;4.57;;
45368;SDS011;51342;55.250;37.668;2023-01-01T02:13:50;11.07;;;5.30;;
45368;SDS011;51342;55.250;37.668;2023-01-01T02:16:27;9.73;;;4.70;;
45368;SDS011;51342;55.250;37.668;2023-01-01T02:22:15;8.53;;;5.47;;
45368;SDS011;51342;55.250;37.668;2023-01-01T02:27:56;10.60;;;5.37;;
45368;SDS011;51342;55.250;37.668;2023-01-01T02:30:37;8.33;;;4.80;;
45368;SDS011;51342;55.250;37.668;2023-01-01T02:33:12;9.33;;;5.20;;
45368;SDS011;51342;55.250;37.668;2023-01-01T02:35:52;8.83;;;5.10;;
45368;SDS011;51342;55.250;37.668;2023-01-01T02:38:33;9.43;;;5.03;;
45368;SDS011;51342;55.250;37.668;2023-01-01T02:44:01;12.00;;;6.20;;
45368;SDS011;51342;55.250;37.668;2023-01-01T02:46:34;9.30;;;5.53;;
45368;SDS011;51342;55.250;37.668;2023-01-01T02:49:06;9.07;;;5.10;;
45368;SDS011;51342;55.250;37.668;2023-01-01T03:03:05;9.87;;;5.03;;
45368;SDS011;51342;55.250;37.668;2023-01-01T03:06:15;8.43;;;5.30;;
45368;SDS011;51342;55.250;37.668;2023-01-01T03:09:13;8.70;;;5.17;;
45368;SDS011;51342;55.250;37.668;2023-01-01T03:19:58;9.13;;;5.63;;
45368;SDS011;51342;55.250;37.668;2023-01-01T03:22:37;9.70;;;5.37;;
45368;SDS011;51342;55.250;37.668;2023-01-01T03:25:13;9.50;;;6.00;;
45368;SDS011;51342;55.250;37.668;2023-01-01T03:27:51;6.93;;;4.57;;
45368;SDS011;51342;55.250;37.668;2023-01-01T03:30:27;9.68;;;5.20;;
45368;SDS011;51342;55.250;37.668;2023-01-01T03:33:03;9.60;;;5.87;;
45368;SDS011;51342;55.250;37.668;2023-01-01T03:35:40;8.30;;;5.47;;
45368;SDS011;51342;55.250;37.668;2023-01-01T03:38:22;8.87;;;5.27;;
45368;SDS011;51342;55.250;37.668;2023-01-01T03:41:10;9.53;;;5.50;;
45368;SDS011;51342;55.250;37.668;2023-01-01T03:46:41;8.95;;;5.70;;
45368;SDS011;51342;55.250;37.668;2023-01-01T03:49:13;8.43;;;5.63;;
45368;SDS011;51342;55.250;37.668;2023-01-01T03:52:09;11.27;;;5.43;;
45368;SDS011;51342;55.250;37.668;2023-01-01T03:57:33;9.10;;;5.50;;
45368;SDS011;51342;55.250;37.668;2023-01-01T04:00:30;9.70;;;5.60;;
45368;SDS011;51342;55.250;37.668;2023-01-01T04:03:13;8.83;;;5.07;;
45368;SDS011;51342;55.250;37.668;2023-01-01T04:05:49;8.60;;;5.30;;
45368;SDS011;51342;55.250;37.668;2023-01-01T04:08:21;7.33;;;4.87;;
45368;SDS011;51342;55.250;37.668;2023-01-01T04:10:55;9.50;;;5.33;;
45368;SDS011;51342;55.250;37.668;2023-01-01T04:13:29;9.03;;;5.27;;
45368;SDS011;51342;55.250;37.668;2023-01-01T04:16:00;9.87;;;5.10;;
45368;SDS011;51342;55.250;37.668;2023-01-01T04:18:33;8.00;;;5.00;;
45368;SDS011;51342;55.250;37.668;2023-01-01T04:21:04;6.33;;;4.47;;
45368;SDS011;51342;55.250;37.668;2023-01-01T04:23:36;7.50;;;5.00;;
45368;SDS011;51342;55.250;37.668;2023-01-01T04:26:13;7.23;;;4.43;;
45368;SDS011;51342;55.250;37.668;2023-01-01T04:28:45;8.87;;;4.90;;
45368;SDS011;51342;55.250;37.668;2023-01-01T04:31:17;7.97;;;5.10;;
45368;SDS011;51342;55.250;37.668;2023-01-01T04:33:51;9.57;;;5.40;;
45368;SDS011;51342;55.250;37.668;2023-01-01T04:36:23;6.23;;;4.40;;
45368;SDS011;51342;55.250;37.668;2023-01-01T04:38:58;7.80;;;5.00;;
45368;SDS011;51342;55.250;37.668;2023-01-01T04:41:29;7.03;;;4.63;;
45368;SDS011;51342;55.250;37.668;2023-01-01T04:44:01;8.50;;;5.13;;
45368;SDS011;51342;55.250;37.668;2023-01-01T04:46:32;9.57;;;5.50;;
45368;SDS011;51342;55.250;37.668;2023-01-01T04:49:04;7.57;;;5.20;;
45368;SDS011;51342;55.250;37.668;2023-01-01T04:51:35;8.57;;;5.30;;
45368;SDS011;51342;55.250;37.668;2023-01-01T04:54:07;8.90;;;5.27;;
45368;SDS011;51342;55.250;37.668;2023-01-01T04:56:38;6.83;;;5.07;;
45368;SDS011;51342;55.250;37.668;2023-01-01T04:59:10;9.37;;;5.40;;
45368;SDS011;51342;55.250;37.668;2023-01-01T05:01:41;8.27;;;5.43;;
45368;SDS011;51342;55.250;37.668;2023-01-01T05:04:13;8.20;;;5.37;;
45368;SDS011;51342;55.250;37.668;2023-01-01T05:06:45;7.47;;;5.50;;
45368;SDS011;51342;55.250;37.668;2023-01-01T05:09:17;7.60;;;5.10;;
45368;SDS011;51342;55.250;37.668;2023-01-01T05:11:48;8.47;;;5.70;;
45368;SDS011;51342;55.250;37.668;2023-01-01T05:14:20;8.57;;;5.87;;
45368;SDS011;51342;55.250;37.668;2023-01-01T05:16:51;9.03;;;5.53;;
45368;SDS011;51342;55.250;37.668;2023-01-01T05:19:23;8.20;;;5.53;;
45368;SDS011;51342;55.250;37.668;2023-01-01T05:21:55;6.87;;;5.20;;
45368;SDS011;51342;55.250;37.668;2023-01-01T05:24:26;8.93;;;5.97;;
45368;SDS011;51342;55.250;37.668;2023-01-01T05:26:58;8.37;;;5.63;;
45368;SDS011;51342;55.250;37.668;2023-01-01T05:29:29;9.70;;;6.00;;
45368;SDS011;51342;55.250;37.668;2023-01-01T05:32:01;9.80;;;6.00;;
45368;SDS011;51342;55.250;37.668;2023-01-01T05:34:32;9.10;;;6.20;;
45368;SDS011;51342;55.250;37.668;2023-01-01T05:37:03;10.40;;;6.00;;
45368;SDS011;51342;55.250;37.668;2023-01-01T05:39:35;9.50;;;5.70;;
45368;SDS011;51342;55.250;37.668;2023-01-01T05:42:07;9.30;;;5.80;;
45368;SDS011;51342;55.250;37.668;2023-01-01T05:44:38;8.50;;;5.83;;
45368;SDS011;51342;55.250;37.668;2023-01-01T05:47:10;8.70;;;5.37;;
45368;SDS011;51342;55.250;37.668;2023-01-01T05:49:42;9.50;;;5.87;;
45368;SDS011;51342;55.250;37.668;2023-01-01T05:52:15;10.43;;;5.93;;
45368;SDS011;51342;55.250;37.668;2023-01-01T05:54:46;8.90;;;5.93;;
45368;SDS011;51342;55.250;37.668;2023-01-01T05:57:18;11.10;;;6.00;;
45368;SDS011;51342;55.250;37.668;2023-01-01T05:59:49;8.03;;;5.30;;
45368;SDS011;51342;55.250;37.668;2023-01-01T06:02:22;8.70;;;5.67;;
45368;SDS011;51342;55.250;37.668;2023-01-01T06:04:53;8.00;;;5.40;;
45368;SDS011;51342;55.250;37.668;2023-01-01T06:07:24;9.60;;;5.73;;
45368;SDS011;51342;55.250;37.668;2023-01-01T06:09:56;9.50;;;5.97;;
45368;SDS011;51342;55.250;37.668;2023-01-01T06:12:27;8.93;;;5.77;;
45368;SDS011;51342;55.250;37.668;2023-01-01T06:14:59;9.23;;;6.33;;
45368;SDS011;51342;55.250;37.668;2023-01-01T06:17:31;10.40;;;6.30;;
45368;SDS011;51342;55.250;37.668;2023-01-01T06:20:03;10.67;;;6.70;;
45368;SDS011;51342;55.250;37.668;2023-01-01T06:22:37;9.80;;;6.30;;
45368;SDS011;51342;55.250;37.668;2023-01-01T06:25:08;10.20;;;5.93;;
45368;SDS011;51342;55.250;37.668;2023-01-01T06:27:40;9.63;;;5.97;;
45368;SDS011;51342;55.250;37.668;2023-01-01T06:30:12;9.17;;;6.37;;
45368;SDS011;51342;55.250;37.668;2023-01-01T06:32:43;11.00;;;6.40;;
45368;SDS011;51342;55.250;37.668;2023-01-01T06:35:15;8.87;;;6.17;;
45368;SDS011;51342;55.250;37.668;2023-01-01T06:37:46;11.80;;;6.73;;
45368;SDS011;51342;55.250;37.668;2023-01-01T06:40:17;11.67;;;6.33;;
45368;SDS011;51342;55.250;37.668;2023-01-01T06:42:49;9.13;;;6.23;;
45368;SDS011;51342;55.250;37.668;2023-01-01T06:45:20;9.37;;;6.43;;
45368;SDS011;51342;55.250;37.668;2023-01-01T06:47:52;11.40;;;6.37;;
45368;SDS011;51342;55.250;37.668;2023-01-01T06:50:23;9.93;;;6.80;;
45368;SDS011;51342;55.250;37.668;2023-01-01T06:52:55;10.27;;;6.10;;
45368;SDS011;51342;55.250;37.668;2023-01-01T06:55:26;9.40;;;6.03;;
45368;SDS011;51342;55.250;37.668;2023-01-01T06:57:57;9.87;;;6.00;;
45368;SDS011;51342;55.250;37.668;2023-01-01T07:00:29;9.90;;;6.00;;
45368;SDS011;51342;55.250;37.668;2023-01-01T07:17:08;10.67;;;7.23;;
45368;SDS011;51342;55.250;37.668;2023-01-01T07:19:40;10.50;;;6.60;;
45368;SDS011;51342;55.250;37.668;2023-01-01T07:22:11;9.80;;;6.37;;
45368;SDS011;51342;55.250;37.668;2023-01-01T07:24:43;9.63;;;6.10;;
45368;SDS011;51342;55.250;37.668;2023-01-01T07:27:14;10.20;;;5.90;;
45368;SDS011;51342;55.250;37.668;2023-01-01T07:29:46;9.43;;;5.97;;
45368;SDS011;51342;55.250;37.668;2023-01-01T07:32:17;9.10;;;5.50;;
45368;SDS011;51342;55.250;37.668;2023-01-01T07:34:48;9.77;;;6.10;;
45368;SDS011;51342;55.250;37.668;2023-01-01T07:37:20;9.67;;;5.53;;
45368;SDS011;51342;55.250;37.668;2023-01-01T07:39:55;8.93;;;5.53;;
45368;SDS011;51342;55.250;37.668;2023-01-01T07:42:26;10.57;;;5.37;;
45368;SDS011;51342;55.250;37.668;2023-01-01T07:44:57;8.10;;;5.70;;
45368;SDS011;51342;55.250;37.668;2023-01-01T07:47:29;9.57;;;5.80;;
45368;SDS011;51342;55.250;37.668;2023-01-01T07:50:00;9.73;;;5.50;;
45368;SDS011;51342;55.250;37.668;2023-01-01T07:52:32;8.97;;;6.00;;
45368;SDS011;51342;55.250;37.668;2023-01-01T07:55:04;12.57;;;6.53;;
45368;SDS011;51342;55.250;37.668;2023-01-01T07:57:39;10.03;;;6.03;;
45368;SDS011;51342;55.250;37.668;2023-01-01T08:00:12;11.30;;;5.70;;
45368;SDS011;51342;55.250;37.668;2023-01-01T08:02:47;7.90;;;5.00;;
45368;SDS011;51342;55.250;37.668;2023-01-01T08:05:19;9.60;;;5.73;;
45368;SDS011;51342;55.250;37.668;2023-01-01T08:07:50;9.63;;;5.60;;
45368;SDS011;51342;55.250;37.668;2023-01-01T08:10:25;8.90;;;4.77;;
45368;SDS011;51342;55.250;37.668;2023-01-01T08:13:00;9.30;;;5.10;;
45368;SDS011;51342;55.250;37.668;2023-01-01T08:15:32;8.17;;;5.00;;
45368;SDS011;51342;55.250;37.668;2023-01-01T08:18:04;7.77;;;5.00;;
45368;SDS011;51342;55.250;37.668;2023-01-01T08:20:35;7.67;;;4.80;;
45368;SDS011;51342;55.250;37.668;2023-01-01T08:23:07;8.93;;;5.23;;
45368;SDS011;51342;55.250;37.668;2023-01-01T08:25:38;7.70;;;5.53;;
45368;SDS011;51342;55.250;37.668;2023-01-01T08:28:10;8.33;;;5.43;;
45368;SDS011;51342;55.250;37.668;2023-01-01T08:30:41;9.73;;;5.63;;
45368;SDS011;51342;55.250;37.668;2023-01-01T08:33:12;10.53;;;6.17;;
45368;SDS011;51342;55.250;37.668;2023-01-01T08:35:44;9.77;;;5.73;;
45368;SDS011;51342;55.250;37.668;2023-01-01T08:38:15;14.70;;;6.53;;
45368;SDS011;51342;55.250;37.668;2023-01-01T08:40:47;10.93;;;6.37;;
45368;SDS011;51342;55.250;37.668;2023-01-01T08:43:18;10.30;;;6.20;;
45368;SDS011;51342;55.250;37.668;2023-01-01T08:45:50;12.00;;;6.53;;
45368;SDS011;51342;55.250;37.668;2023-01-01T08:48:22;11.30;;;6.00;;
45368;SDS011;51342;55.250;37.668;2023-01-01T08:50:54;13.03;;;6.63;;
45368;SDS011;51342;55.250;37.668;2023-01-01T08:53:33;12.47;;;7.23;;
45368;SDS011;51342;55.250;37.668;2023-01-01T08:56:05;10.73;;;6.53;;
45368;SDS011;51342;55.250;37.668;2023-01-01T08:58:38;13.00;;;7.17;;
45368;SDS011;51342;55.250;37.668;2023-01-01T09:01:10;12.10;;;6.90;;
45368;SDS011;51342;55.250;37.668;2023-01-01T09:03:41;14.27;;;8.23;;
45368;SDS011;51342;55.250;37.668;2023-01-01T09:06:13;12.60;;;7.37;;
45368;SDS011;51342;55.250;37.668;2023-01-01T09:08:45;12.40;;;7.23;;
45368;SDS011;51342;55.250;37.668;2023-01-01T09:11:24;13.70;;;6.90;;
45368;SDS011;51342;55.250;37.668;2023-01-01T09:13:57;12.97;;;7.13;;
45368;SDS011;51342;55.250;37.668;2023-01-01T09:16:29;13.70;;;7.57;;
45368;SDS011;51342;55.250;37.668;2023-01-01T09:19:00;16.07;;;7.40;;
45368;SDS011;51342;55.250;37.668;2023-01-01T09:21:32;12.53;;;7.67;;
45368;SDS011;51342;55.250;37.668;2023-01-01T09:24:03;14.70;;;7.83;;
45368;SDS011;51342;55.250;37.668;2023-01-01T09:26:35;15.37;;;8.50;;
45368;SDS011;51342;55.250;37.668;2023-01-01T09:29:06;14.87;;;8.10;;
45368;SDS011;51342;55.250;37.668;2023-01-01T09:31:37;14.63;;;7.77;;
45368;SDS011;51342;55.250;37.668;2023-01-01T09:34:09;15.00;;;8.10;;
45368;SDS011;51342;55.250;37.668;2023-01-01T09:36:40;14.50;;;7.47;;
45368;SDS011;51342;55.250;37.668;2023-01-01T09:39:13;14.50;;;8.40;;
45368;SDS011;51342;55.250;37.668;2023-01-01T09:47:43;13.73;;;7.77;;
45368;SDS011;51342;55.250;37.668;2023-01-01T09:51:00;14.83;;;7.97;;
45368;SDS011;51342;55.250;37.668;2023-01-01T09:53:24;12.80;;;8.00;;
45368;SDS011;51342;55.250;37.668;2023-01-01T09:56:13;13.38;;;7.68;;
45368;SDS011;51342;55.250;37.668;2023-01-01T09:58:49;12.77;;;6.95;;
45368;SDS011;51342;55.250;37.668;2023-01-01T10:03:57;13.03;;;7.60;;
45368;SDS011;51342;55.250;37.668;2023-01-01T10:06:43;11.70;;;7.20;;
45368;SDS011;51342;55.250;37.668;2023-01-01T10:15:01;11.10;;;6.60;;
45368;SDS011;51342;55.250;37.668;2023-01-01T10:17:53;12.10;;;7.37;;
45368;SDS011;51342;55.250;37.668;2023-01-01T10:20:35;12.57;;;7.03;;
45368;SDS011;51342;55.250;37.668;2023-01-01T10:25:57;13.50;;;7.35;;
45368;SDS011;51342;55.250;37.668;2023-01-01T10:28:42;10.67;;;6.77;;
45368;SDS011;51342;55.250;37.668;2023-01-01T10:31:28;12.90;;;6.90;;
45368;SDS011;51342;55.250;37.668;2023-01-01T10:36:43;10.20;;;6.57;;
45368;SDS011;51342;55.250;37.668;2023-01-01T10:39:15;10.87;;;6.43;;
45368;SDS011;51342;55.250;37.668;2023-01-01T10:41:47;9.90;;;6.57;;
45368;SDS011;51342;55.250;37.668;2023-01-01T10:44:37;9.37;;;6.30;;
45368;SDS011;51342;55.250;37.668;2023-01-01T10:49:59;9.83;;;5.80;;
45368;SDS011;51342;55.250;37.668;2023-01-01T10:52:35;9.47;;;5.97;;
45368;SDS011;51342;55.250;37.668;2023-01-01T10:55:18;9.43;;;5.90;;
45368;SDS011;51342;55.250;37.668;2023-01-01T10:57:51;8.30;;;5.90;;
45368;SDS011;51342;55.250;37.668;2023-01-01T11:00:24;8.57;;;5.50;;
45368;SDS011;51342;55.250;37.668;2023-01-01T11:06:10;10.20;;;6.13;;
45368;SDS011;51342;55.250;37.668;2023-01-01T11:08:47;8.20;;;5.03;;
45368;SDS011;51342;55.250;37.668;2023-01-01T11:11:24;9.65;;;5.70;;
45368;SDS011;51342;55.250;37.668;2023-01-01T11:13:59;9.60;;;5.68;;
45368;SDS011;51342;55.250;37.668;2023-01-01T11:16:34;9.47;;;5.97;;
45368;SDS011;51342;55.250;37.668;2023-01-01T11:19:21;8.63;;;5.40;;
45368;SDS011;51342;55.250;37.668;2023-01-01T11:24:33;8.10;;;5.20;;
45368;SDS011;51342;55.250;37.668;2023-01-01T11:29:51;9.73;;;5.57;;
45368;SDS011;51342;55.250;37.668;2023-01-01T11:32:50;8.23;;;5.40;;
45368;SDS011;51342;55.250;37.668;2023-01-01T11:35:27;8.07;;;5.18;;
45368;SDS011;51342;55.250;37.668;2023-01-01T11:38:01;7.13;;;5.03;;
45368;SDS011;51342;55.250;37.668;2023-01-01T11:40:37;7.40;;;4.97;;
45368;SDS011;51342;55.250;37.668;2023-01-01T11:43:23;7.23;;;4.70;;
45368;SDS011;51342;55.250;37.668;2023-01-01T11:45:58;6.30;;;4.67;;
45368;SDS011;51342;55.250;37.668;2023-01-01T11:48:31;7.23;;;4.87;;
45368;SDS011;51342;55.250;37.668;2023-01-01T11:51:07;6.87;;;4.67;;
45368;SDS011;51342;55.250;37.668;2023-01-01T11:53:41;7.82;;;4.85;;
45368;SDS011;51342;55.250;37.668;2023-01-01T11:58:54;7.40;;;4.75;;
45368;SDS011;51342;55.250;37.668;2023-01-01T12:01:47;9.67;;;5.53;;
45368;SDS011;51342;55.250;37.668;2023-01-01T12:07:08;7.67;;;5.47;;
45368;SDS011;51342;55.250;37.668;2023-01-01T12:09:47;8.55;;;5.63;;
45368;SDS011;51342;55.250;37.668;2023-01-01T12:12:30;7.70;;;5.23;;
45368;SDS011;51342;55.250;37.668;2023-01-01T12:15:23;7.40;;;4.50;;
45368;SDS011;51342;55.250;37.668;2023-01-01T12:20:37;6.83;;;4.50;;
45368;SDS011;51342;55.250;37.668;2023-01-01T12:23:14;8.37;;;5.20;;
45368;SDS011;51342;55.250;37.668;2023-01-01T12:25:51;7.47;;;4.63;;
45368;SDS011;51342;55.250;37.668;2023-01-01T12:31:46;8.77;;;5.33;;
45368;SDS011;51342;55.250;37.668;2023-01-01T12:40:32;8.73;;;5.17;;
45368;SDS011;51342;55.250;37.668;2023-01-01T12:48:48;11.07;;;5.53;;
45368;SDS011;51342;55.250;37.668;2023-01-01T12:57:48;9.57;;;5.20;;
45368;SDS011;51342;55.250;37.668;2023-01-01T13:00:38;9.33;;;5.10;;
45368;SDS011;51342;55.250;37.668;2023-01-01T13:03:17;9.00;;;5.17;;
45368;SDS011;51342;55.250;37.668;2023-01-01T13:05:52;7.20;;;5.03;;
45368;SDS011;51342;55.250;37.668;2023-01-01T13:08:26;7.83;;;5.13;;
45368;SDS011;51342;55.250;37.668;2023-01-01T13:10:58;9.13;;;5.23;;
45368;SDS011;51342;55.250;37.668;2023-01-01T13:13:31;8.17;;;5.13;;
45368;SDS011;51342;55.250;37.668;2023-01-01T13:16:02;7.13;;;4.60;;
45368;SDS011;51342;55.250;37.668;2023-01-01T13:18:34;7.97;;;5.00;;
45368;SDS011;51342;55.250;37.668;2023-01-01T13:21:17;7.80;;;5.00;;
45368;SDS011;51342;55.250;37.668;2023-01-01T13:23:53;9.43;;;5.90;;
45368;SDS011;51342;55.250;37.668;2023-01-01T13:26:30;9.17;;;5.47;;
45368;SDS011;51342;55.250;37.668;2023-01-01T13:45:25;9.57;;;5.33;;
45368;SDS011;51342;55.250;37.668;2023-01-01T13:58:08;8.47;;;5.70;;
45368;SDS011;51342;55.250;37.668;2023-01-01T14:00:29;8.90;;;5.87;;
45368;SDS011;51342;55.250;37.668;2023-01-01T14:03:12;10.07;;;5.40;;
45368;SDS011;51342;55.250;37.668;2023-01-01T14:05:57;8.83;;;5.60;;
45368;SDS011;51342;55.250;37.668;2023-01-01T14:08:33;8.70;;;5.20;;
45368;SDS011;51342;55.250;37.668;2023-01-01T14:11:19;9.23;;;5.47;;
45368;SDS011;51342;55.250;37.668;2023-01-01T14:13:53;9.40;;;5.30;;
45368;SDS011;51342;55.250;37.668;2023-01-01T14:16:25;8.00;;;4.90;;
45368;SDS011;51342;55.250;37.668;2023-01-01T14:18:58;8.90;;;5.83;;
45368;SDS011;51342;55.250;37.668;2023-01-01T14:21:31;10.17;;;5.73;;
45368;SDS011;51342;55.250;37.668;2023-01-01T14:24:04;7.93;;;5.10;;
45368;SDS011;51342;55.250;37.668;2023-01-01T14:26:38;9.60;;;5.90;;
45368;SDS011;51342;55.250;37.668;2023-01-01T14:29:20;10.87;;;6.00;;
45368;SDS011;51342;55.250;37.668;2023-01-01T14:31:59;10.73;;;6.10;;
45368;SDS011;51342;55.250;37.668;2023-01-01T14:34:42;9.80;;;5.97;;
45368;SDS011;51342;55.250;37.668;2023-01-01T14:37:22;12.20;;;6.87;;
45368;SDS011;51342;55.250;37.668;2023-01-01T14:40:14;10.53;;;6.00;;
45368;SDS011;51342;55.250;37.668;2023-01-01T14:43:03;11.07;;;6.13;;
45368;SDS011;51342;55.250;37.668;2023-01-01T14:45:42;11.57;;;6.20;;
45368;SDS011;51342;55.250;37.668;2023-01-01T14:48:16;10.27;;;6.47;;
45368;SDS011;51342;55.250;37.668;2023-01-01T14:50:49;11.57;;;6.77;;
45368;SDS011;51342;55.250;37.668;2023-01-01T14:53:24;11.23;;;6.27;;
45368;SDS011;51342;55.250;37.668;2023-01-01T14:56:03;12.23;;;6.90;;
45368;SDS011;51342;55.250;37.668;2023-01-01T14:58:38;13.53;;;7.27;;
45368;SDS011;51342;55.250;37.668;2023-01-01T15:01:14;14.47;;;7.97;;
45368;SDS011;51342;55.250;37.668;2023-01-01T15:04:12;14.97;;;7.70;;
45368;SDS011;51342;55.250;37.668;2023-01-01T15:06:53;16.40;;;8.73;;
45368;SDS011;51342;55.250;37.668;2023-01-01T15:09:25;15.30;;;7.90;;
45368;SDS011;51342;55.250;37.668;2023-01-01T15:11:58;20.33;;;9.43;;
45368;SDS011;51342;55.250;37.668;2023-01-01T15:14:38;19.00;;;9.40;;
45368;SDS011;51342;55.250;37.668;2023-01-01T15:17:22;17.80;;;9.07;;
45368;SDS011;51342;55.250;37.668;2023-01-01T15:22:49;18.97;;;9.03;;
45368;SDS011;51342;55.250;37.668;2023-01-01T15:25:22;17.03;;;9.00;;
45368;SDS011;51342;55.250;37.668;2023-01-01T15:27:54;19.53;;;9.70;;
45368;SDS011;51342;55.250;37.668;2023-01-01T15:30:26;21.30;;;10.60;;
45368;SDS011;51342;55.250;37.668;2023-01-01T15:33:05;20.10;;;9.93;;
45368;SDS011;51342;55.250;37.668;2023-01-01T15:35:38;22.60;;;10.65;;
45368;SDS011;51342;55.250;37.668;2023-01-01T15:38:23;23.43;;;11.17;;
45368;SDS011;51342;55.250;37.668;2023-01-01T15:46:46;23.20;;;11.67;;
45368;SDS011;51342;55.250;37.668;2023-01-01T15:49:23;25.03;;;11.70;;
45368;SDS011;51342;55.250;37.668;2023-01-01T15:52:02;20.20;;;10.50;;
45368;SDS011;51342;55.250;37.668;2023-01-01T15:54:36;24.17;;;11.77;;
45368;SDS011;51342;55.250;37.668;2023-01-01T15:57:19;22.90;;;11.33;;
45368;SDS011;51342;55.250;37.668;2023-01-01T15:59:53;28.13;;;11.97;;
45368;SDS011;51342;55.250;37.668;2023-01-01T16:02:29;24.17;;;11.90;;
45368;SDS011;51342;55.250;37.668;2023-01-01T16:05:11;25.53;;;11.67;;
45368;SDS011;51342;55.250;37.668;2023-01-01T16:07:44;26.87;;;12.10;;
45368;SDS011;51342;55.250;37.668;2023-01-01T16:10:16;24.10;;;11.93;;
45368;SDS011;51342;55.250;37.668;2023-01-01T16:12:48;23.53;;;11.67;;
45368;SDS011;51342;55.250;37.668;2023-01-01T16:15:19;26.20;;;12.13;;
45368;SDS011;51342;55.250;37.668;2023-01-01T16:17:50;30.07;;;12.47;;
45368;SDS011;51342;55.250;37.668;2023-01-01T16:20:22;26.33;;;12.70;;
45368;SDS011;51342;55.250;37.668;2023-01-01T16:22:55;26.00;;;12.27;;
45368;SDS011;51342;55.250;37.668;2023-01-01T16:25:26;30.70;;;13.57;;
45368;SDS011;51342;55.250;37.668;2023-01-01T16:27:57;30.03;;;13.17;;
45368;SDS011;51342;55.250;37.668;2023-01-01T16:30:29;35.17;;;13.37;;
45368;SDS011;51342;55.250;37.668;2023-01-01T16:33:01;31.47;;;12.63;;
45368;SDS011;51342;55.250;37.668;2023-01-01T16:35:34;38.37;;;14.13;;
45368;SDS011;51342;55.250;37.668;2023-01-01T16:38:05;30.40;;;12.63;;
45368;SDS011;51342;55.250;37.668;2023-01-01T16:40:37;39.40;;;14.83;;
45368;SDS011;51342;55.250;37.668;2023-01-01T16:43:13;38.90;;;13.70;;
45368;SDS011;51342;55.250;37.668;2023-01-01T16:45:47;43.93;;;14.37;;
45368;SDS011;51342;55.250;37.668;2023-01-01T16:48:18;31.07;;;13.67;;
45368;SDS011;51342;55.250;37.668;2023-01-01T16:50:49;35.27;;;14.73;;
45368;SDS011;51342;55.250;37.668;2023-01-01T16:53:22;69.33;;;17.83;;
45368;SDS011;51342;55.250;37.668;2023-01-01T16:55:53;40.53;;;15.03;;
45368;SDS011;51342;55.250;37.668;2023-01-01T16:58:24;48.83;;;16.60;;
45368;SDS011;51342;55.250;37.668;2023-01-01T17:00:59;49.13;;;15.93;;
45368;SDS011;51342;55.250;37.668;2023-01-01T17:03:31;85.27;;;17.10;;
45368;SDS011;51342;55.250;37.668;2023-01-01T17:06:03;57.00;;;17.43;;
45368;SDS011;51342;55.250;37.668;2023-01-01T17:08:38;49.07;;;16.57;;
45368;SDS011;51342;55.250;37.668;2023-01-01T17:11:11;44.87;;;15.30;;
45368;SDS011;51342;55.250;37.668;2023-01-01T17:13:47;35.37;;;14.13;;
45368;SDS011;51342;55.250;37.668;2023-01-01T17:16:18;37.30;;;15.40;;
45368;SDS011;51342;55.250;37.668;2023-01-01T17:18:50;60.93;;;17.20;;
45368;SDS011;51342;55.250;37.668;2023-01-01T17:21:22;42.53;;;16.93;;
45368;SDS011;51342;55.250;37.668;2023-01-01T17:23:54;42.63;;;15.70;;
45368;SDS011;51342;55.250;37.668;2023-01-01T17:26:26;47.90;;;15.90;;
45368;SDS011;51342;55.250;37.668;2023-01-01T17:28:59;47.63;;;18.53;;
45368;SDS011;51342;55.250;37.668;2023-01-01T17:31:33;51.30;;;17.70;;
45368;SDS011;51342;55.250;37.668;2023-01-01T17:34:04;43.47;;;16.33;;
45368;SDS011;51342;55.250;37.668;2023-01-01T17:36:39;48.23;;;16.87;;
45368;SDS011;51342;55.250;37.668;2023-01-01T17:39:12;54.67;;;17.73;;